Sacramento, California
Traffic Map
Current Weather Conditions
Sacramento, California
Clear
Clear
77°
Feels Like: 78°
Wind Chill: 77° Ceiling: Unl
Heat Index: 78° Visibility: 10mi
Dew Point: 53° Wind: 7mph
Humidity: 43% Direction: 200° (SSW)
Pressure: 29.92in Gusts: 0mph
Raw Report DataKSAC 300453Z AUTO 20006KT 10SM CLR 25/12 A2992 RMK AO2 SLP131 T02500117
Traffic Incident Summary
Active as of:
Severity:
Category:
InformationThere was an issue retrieving the traffic information for this location. Please try a different location or try again shortly.
Advertisements
Track Severe Weather on mobile